Accueil
METAR-TAF:

METAR-TAF

Aéroports :

Aéroport international de Kosrae

Kosrae, Micronésie

latitude: 05-21N, longitude: 162-57E, altitude: 3 m

Observation

Le bulletin a été fait il y a 5 heures et 38 minutes, à 23:50 UTC
Vent 15 kt de nord-est
Température 31°C
Humidité 71%
Pression 1011 hPa
Visibilité: 16.1 km
Nuages épars à une hauteur de 1900 ft
Nuages fragmentés à une hauteur de 13000 ft
Nuages fragmentés à une hauteur de 30000 ft

METAR: PTSA 222350Z 04015KT 10SM SCT019 BKN130 BKN300 31/25 A2986 RMK LAST

Heure: 16:28 (05:28 UTC)

Prévision

Le bulletin a été fait il y a 5 heures et 49 minutes, à 23:39 UTC
Prévision valable du 23 à 00 UTC au 23 à 24 UTC
Vent 14 kt de est/nord-est
Visibilité: 10 km
Nuages épars à une hauteur de 1800 ft
Nuages fragmentés à une hauteur de 13000 ft
averses à proximité

TAF: PTSA 222339Z 2300/2324 06014KT P6SM VCSH SCT018 BKN130

Observations et prévisions météorologiques de plus de 4000 aéroports (messages METAR et TAF).

Les stations disponibles sont représentées par des disques jaunes et rouges sur la carte.

Passer la souris dessus pour voir le nom de la station.

Cliquer dessus pour voir les observations et prévisions météorologiques.

Pour changer de carte: cliquez sur les boutons verts avec une croix noire pour zoomer, sur le bouton vert avec un tiret pour effectuer un zoom arrière, ou sur les flèches vertes pour les cartes adjacentes.


METAR-TAF: